Whittemore, Iowa
Current Conditions -  °F | °C
As of 9:35 PM on Saturday 22 Nov 2014 (Local Time) from KAXA Reporting Station
Haze Haze  
Wind Chill:   Ceiling: 500
Heat Index:   Visibility: 4mi
Dew Point:   Wind: 14mph
Humidity: 100%   Direction: 180°S
Pressure: 29.57"   Gusts: NA
Location:  43.06°N, 94.43°W
Report Text: KAXA 230335Z AUTO 18012KT 4SM BR OVC005 09/09 A2957 RMK AO2
Loading
Personal Weather Stations






























Interactive Weather Map New forecast layout! Learn more

10-Day Weather Forecast

Advertisements
Track Severe Weather on mobile